createdAt,value
2023-02-26T00:01:22.903Z,100602.91
2023-02-26T00:03:54.812Z,100610.69
2023-02-26T00:06:21.975Z,100615.34
2023-02-26T00:08:48.884Z,100616.19
2023-02-26T00:11:15.677Z,100613.91
2023-02-26T00:13:44.502Z,100612.72
2023-02-26T00:18:53.218Z,100631.19
2023-02-26T00:21:22.606Z,100630.28
2023-02-26T00:23:49.580Z,100637.09
2023-02-26T00:26:16.084Z,100633.75
2023-02-26T00:28:43.035Z,100635.41
2023-02-26T00:31:10.361Z,100651.28
2023-02-26T00:33:37.172Z,100655.09
2023-02-26T00:36:20.458Z,100648.03
2023-02-26T00:39:00.014Z,100654.94
2023-02-26T00:41:26.909Z,100659.16
2023-02-26T00:43:53.674Z,100663.50
2023-02-26T00:46:35.893Z,100661.47
2023-02-26T00:49:50.368Z,100657.56
2023-02-26T00:52:35.240Z,100662.31
2023-02-26T00:55:01.638Z,100663.19
2023-02-26T00:57:28.070Z,100678.16
2023-02-26T00:59:54.573Z,100674.69
2023-02-26T01:02:21.145Z,100677.69
2023-02-26T01:04:48.449Z,100680.53
2023-02-26T01:07:16.081Z,100674.97
2023-02-26T01:09:42.692Z,100684.56
2023-02-26T01:12:12.932Z,100693.28
2023-02-26T01:14:40.389Z,100689.00
2023-02-26T01:17:19.338Z,100698.84
2023-02-26T01:19:45.911Z,100695.06
2023-02-26T01:22:21.445Z,100694.91
2023-02-26T01:24:52.622Z,100704.97
2023-02-26T01:27:19.206Z,100705.19
2023-02-26T01:29:46.146Z,100710.34
2023-02-26T01:32:15.526Z,100706.88
2023-02-26T01:34:51.313Z,100716.84
2023-02-26T01:37:31.459Z,100715.09
2023-02-26T01:40:33.333Z,100711.16
2023-02-26T01:43:04.920Z,100712.97
2023-02-26T01:45:39.197Z,100711.16
2023-02-26T01:48:11.660Z,100717.31
2023-02-26T01:50:39.496Z,100710.34
2023-02-26T01:53:26.774Z,100725.16
2023-02-26T01:56:04.781Z,100725.31
2023-02-26T01:58:34.465Z,100718.03
2023-02-26T02:01:01.997Z,100721.53
2023-02-26T02:03:31.824Z,100734.50
2023-02-26T02:09:47.751Z,100736.97
2023-02-26T02:12:35.885Z,100745.09
2023-02-26T02:15:17.179Z,100742.47
2023-02-26T02:17:52.470Z,100748.69
2023-02-26T02:20:27.911Z,100750.38
2023-02-26T02:23:00.122Z,100760.53
2023-02-26T02:25:35.712Z,100761.56
2023-02-26T02:28:28.550Z,100769.50
2023-02-26T02:31:19.858Z,100777.03
2023-02-26T02:34:01.621Z,100771.78
2023-02-26T02:36:54.012Z,100784.13
2023-02-26T02:39:28.016Z,100782.16
2023-02-26T02:42:04.774Z,100790.94
2023-02-26T02:44:36.370Z,100787.53
2023-02-26T02:47:06.196Z,100789.09
2023-02-26T02:49:48.084Z,100796.44
2023-02-26T02:52:22.714Z,100792.72
2023-02-26T02:55:18.640Z,100796.09
2023-02-26T02:58:01.400Z,100791.66
2023-02-26T03:00:31.387Z,100799.78
2023-02-26T03:03:06.710Z,100804.09
2023-02-26T03:05:33.308Z,100802.53
2023-02-26T03:08:04.987Z,100805.75
2023-02-26T03:10:32.015Z,100804.19
2023-02-26T03:12:58.454Z,100812.97
2023-02-26T03:15:40.107Z,100820.75
2023-02-26T03:18:09.945Z,100818.72
2023-02-26T03:20:46.170Z,100815.59
2023-02-26T03:23:18.233Z,100832.34
2023-02-26T03:25:51.342Z,100827.38
2023-02-26T03:28:30.628Z,100829.84
2023-02-26T03:31:03.601Z,100832.47
2023-02-26T03:33:57.986Z,100841.25
2023-02-26T03:36:39.474Z,100842.69
2023-02-26T03:39:19.549Z,100851.75
2023-02-26T03:42:06.362Z,100850.56
2023-02-26T03:44:37.723Z,100853.25
2023-02-26T03:47:12.749Z,100863.19
2023-02-26T03:50:02.045Z,100868.28
2023-02-26T03:52:31.770Z,100877.94
2023-02-26T03:55:08.676Z,100873.25
2023-02-26T03:57:35.565Z,100888.38
2023-02-26T04:00:02.343Z,100894.47
2023-02-26T04:02:35.132Z,100897.16
2023-02-26T04:05:30.499Z,100899.47
2023-02-26T04:07:57.952Z,100907.19
2023-02-26T04:10:36.481Z,100899.84
2023-02-26T04:13:03.357Z,100903.38
2023-02-26T04:15:30.018Z,100911.91
2023-02-26T04:17:56.532Z,100909.06
2023-02-26T04:20:23.036Z,100917.06
2023-02-26T04:22:49.537Z,100922.19
2023-02-26T04:25:16.290Z,100923.22
2023-02-26T04:27:42.716Z,100927.75
2023-02-26T04:30:09.838Z,100929.19
2023-02-26T04:32:36.356Z,100937.16
2023-02-26T04:35:02.930Z,100938.00
2023-02-26T04:37:29.625Z,100933.72
2023-02-26T04:39:56.059Z,100945.72
2023-02-26T04:42:22.558Z,100937.19
2023-02-26T04:44:49.210Z,100945.84
2023-02-26T04:47:15.727Z,100951.75
2023-02-26T04:49:42.195Z,100959.81
2023-02-26T04:52:08.697Z,100957.91
2023-02-26T04:54:35.323Z,100960.66
2023-02-26T04:57:01.807Z,100964.19
2023-02-26T04:59:28.240Z,100959.88
2023-02-26T05:01:54.744Z,100970.06
2023-02-26T05:04:21.350Z,100973.88
2023-02-26T05:06:47.825Z,100972.19
2023-02-26T05:09:14.430Z,100976.25
2023-02-26T05:11:40.934Z,100974.44
2023-02-26T05:14:07.489Z,100979.69
2023-02-26T05:16:34.037Z,100991.69
2023-02-26T05:19:00.570Z,100990.06
2023-02-26T05:21:27.063Z,101001.19
2023-02-26T05:23:53.609Z,101006.03
2023-02-26T05:26:20.102Z,101004.19
2023-02-26T05:28:46.683Z,101006.56
2023-02-26T05:31:13.817Z,101012.59
2023-02-26T05:33:40.589Z,101014.50
2023-02-26T05:36:07.364Z,101006.78
2023-02-26T05:38:34.392Z,101022.41
2023-02-26T05:41:01.678Z,101021.97
2023-02-26T05:43:28.409Z,101019.66
2023-02-26T05:45:55.711Z,101033.69
2023-02-26T05:48:22.662Z,101041.56
2023-02-26T05:50:50.359Z,101039.78
2023-02-26T05:53:17.328Z,101044.91
2023-02-26T05:55:43.902Z,101042.50
2023-02-26T05:58:10.423Z,101052.16
2023-02-26T06:00:37.003Z,101049.56
2023-02-26T06:03:03.536Z,101050.41
2023-02-26T06:05:31.324Z,101061.06
2023-02-26T06:07:57.772Z,101065.91
2023-02-26T06:10:24.400Z,101066.28
2023-02-26T06:12:50.910Z,101069.28
2023-02-26T06:17:58.935Z,101075.22
2023-02-26T06:20:25.455Z,101093.69
2023-02-26T06:22:51.920Z,101086.63
2023-02-26T06:25:18.391Z,101090.41
2023-02-26T06:27:44.835Z,101091.38
2023-02-26T06:30:12.155Z,101100.38
2023-02-26T06:32:38.772Z,101100.09
2023-02-26T06:51:10.101Z,101134.16
2023-02-26T06:53:36.663Z,101137.13
2023-02-26T06:56:03.729Z,101143.72
2023-02-26T06:58:30.666Z,101148.19
2023-02-26T07:00:57.122Z,101148.84
2023-02-26T07:03:23.652Z,101153.94
2023-02-26T07:05:50.635Z,101159.22
2023-02-26T07:08:17.102Z,101166.63
2023-02-26T07:10:44.014Z,101168.13
2023-02-26T07:13:10.460Z,101169.47
2023-02-26T07:18:12.234Z,101172.69
2023-02-26T07:20:38.756Z,101185.81
2023-02-26T07:23:05.495Z,101184.13
2023-02-26T07:25:31.966Z,101192.25
2023-02-26T07:27:59.897Z,101197.91
2023-02-26T07:30:26.976Z,101197.88
2023-02-26T07:32:53.495Z,101209.28
2023-02-26T07:35:20.459Z,101206.34
2023-02-26T07:37:46.951Z,101199.91
2023-02-26T07:40:13.910Z,101210.88
2023-02-26T07:42:40.732Z,101216.66
2023-02-26T07:45:08.249Z,101214.75
2023-02-26T07:47:35.450Z,101223.59
2023-02-26T07:50:02.025Z,101230.19
2023-02-26T07:52:28.951Z,101238.13
2023-02-26T07:54:55.444Z,101234.72
2023-02-26T07:57:22.018Z,101234.38
2023-02-26T07:59:48.567Z,101231.03
2023-02-26T08:02:15.120Z,101241.56
2023-02-26T08:04:42.698Z,101234.47
2023-02-26T08:07:09.366Z,101246.22
2023-02-26T08:09:36.137Z,101248.81
2023-02-26T08:12:03.543Z,101247.97
2023-02-26T08:14:30.005Z,101256.38
2023-02-26T08:16:56.709Z,101260.72
2023-02-26T08:19:23.180Z,101260.97
2023-02-26T08:21:50.820Z,101259.25
2023-02-26T08:24:17.526Z,101259.22
2023-02-26T08:26:45.329Z,101269.19
2023-02-26T08:29:11.802Z,101275.97
2023-02-26T08:31:38.495Z,101277.16
2023-02-26T08:34:05.040Z,101287.22
2023-02-26T08:36:32.447Z,101283.13
2023-02-26T08:38:58.923Z,101293.75
2023-02-26T08:41:27.688Z,101291.84
2023-02-26T08:43:54.216Z,101294.84
2023-02-26T08:46:20.831Z,101299.63
2023-02-26T08:48:47.304Z,101300.94
2023-02-26T08:51:14.031Z,101307.09
2023-02-26T08:53:40.572Z,101306.28
2023-02-26T08:56:07.894Z,101314.94
2023-02-26T08:58:34.425Z,101318.34
2023-02-26T09:01:00.879Z,101326.97
2023-02-26T09:03:27.348Z,101326.50
2023-02-26T09:05:53.765Z,101327.19
2023-02-26T09:08:21.310Z,101335.00
2023-02-26T09:10:48.163Z,101328.88
2023-02-26T09:13:14.745Z,101331.31
2023-02-26T09:15:41.648Z,101325.66
2023-02-26T09:18:15.158Z,101329.13
2023-02-26T09:20:45.368Z,101336.53
2023-02-26T09:23:12.157Z,101342.91
2023-02-26T09:25:38.844Z,101347.38
2023-02-26T09:28:05.755Z,101345.00
2023-02-26T09:30:32.738Z,101354.69
2023-02-26T09:32:59.523Z,101359.47
2023-02-26T09:35:26.084Z,101377.94
2023-02-26T09:37:52.598Z,101367.81
2023-02-26T09:40:29.398Z,101375.81
2023-02-26T09:43:47.060Z,101371.31
2023-02-26T09:46:28.470Z,101373.72
2023-02-26T09:49:03.346Z,101382.50
2023-02-26T09:51:33.481Z,101380.19
2023-02-26T09:54:05.059Z,101393.59
2023-02-26T09:56:36.986Z,101390.41
2023-02-26T09:59:03.554Z,101396.59
2023-02-26T10:01:43.793Z,101400.50
2023-02-26T10:04:51.845Z,101404.81
2023-02-26T10:07:45.221Z,101407.50
2023-02-26T10:10:33.554Z,101406.56
2023-02-26T10:13:00.618Z,101408.28
2023-02-26T10:15:33.531Z,101411.06
2023-02-26T10:18:21.479Z,101412.81
2023-02-26T10:20:59.486Z,101420.75
2023-02-26T10:23:38.495Z,101414.94
2023-02-26T10:26:11.144Z,101429.72
2023-02-26T10:28:48.761Z,101433.72
2023-02-26T10:31:38.809Z,101437.41
2023-02-26T10:34:21.764Z,101435.00
2023-02-26T10:37:14.064Z,101439.28
2023-02-26T10:39:53.169Z,101447.88
2023-02-26T10:42:37.705Z,101443.13
2023-02-26T10:45:43.154Z,101457.84
2023-02-26T10:48:47.368Z,101448.25
2023-02-26T10:51:38.307Z,101461.28
2023-02-26T10:54:11.243Z,101461.56
2023-02-26T10:56:37.840Z,101453.63
2023-02-26T10:59:04.419Z,101461.81
2023-02-26T11:01:32.059Z,101467.13
2023-02-26T11:04:05.786Z,101466.69
2023-02-26T11:06:38.002Z,101466.06
2023-02-26T11:09:14.350Z,101454.53
2023-02-26T11:12:02.114Z,101457.78
2023-02-26T11:14:30.814Z,101454.84
2023-02-26T11:17:00.623Z,101458.59
2023-02-26T11:19:33.071Z,101470.94
2023-02-26T11:22:02.212Z,101470.94
2023-02-26T11:24:40.407Z,101471.75
2023-02-26T11:27:13.504Z,101471.75
2023-02-26T11:29:47.661Z,101477.16
2023-02-26T11:32:19.084Z,101481.16
2023-02-26T11:34:51.236Z,101485.50
2023-02-26T11:37:28.867Z,101486.28
2023-02-26T11:40:05.211Z,101485.69
2023-02-26T11:42:38.003Z,101492.09
2023-02-26T11:45:06.313Z,101491.28
2023-02-26T11:47:34.707Z,101495.44
2023-02-26T11:50:05.593Z,101496.16
2023-02-26T11:52:41.536Z,101488.31
2023-02-26T11:55:21.904Z,101491.78
2023-02-26T11:57:54.756Z,101505.09
2023-02-26T12:00:31.743Z,101502.97
2023-02-26T12:03:09.036Z,101494.53
2023-02-26T12:05:36.581Z,101499.16
2023-02-26T12:08:13.215Z,101500.84
2023-02-26T12:10:55.095Z,101501.81
2023-02-26T12:13:30.462Z,101499.94
2023-02-26T12:16:06.955Z,101498.25
2023-02-26T12:18:51.466Z,101504.03
2023-02-26T12:21:42.018Z,101512.22
2023-02-26T12:24:17.451Z,101509.63
2023-02-26T12:27:02.504Z,101510.38
2023-02-26T12:29:51.809Z,101517.59
2023-02-26T12:32:28.954Z,101517.25
2023-02-26T12:35:07.541Z,101518.47
2023-02-26T12:37:40.539Z,101517.91
2023-02-26T12:40:17.648Z,101506.97
2023-02-26T12:42:44.115Z,101517.00
2023-02-26T12:45:10.892Z,101515.03
2023-02-26T12:48:16.427Z,101518.19
2023-02-26T12:51:00.597Z,101521.06
2023-02-26T12:53:35.796Z,101528.75
2023-02-26T12:56:23.959Z,101538.06
2023-02-26T12:58:58.506Z,101526.63
2023-02-26T13:01:59.541Z,101532.56
2023-02-26T13:04:45.211Z,101533.91
2023-02-26T13:07:20.145Z,101541.03
2023-02-26T13:09:59.126Z,101538.13
2023-02-26T13:12:42.520Z,101541.09
2023-02-26T13:15:36.964Z,101540.31
2023-02-26T13:18:26.978Z,101545.28
2023-02-26T13:21:04.453Z,101548.44
2023-02-26T13:23:41.275Z,101540.19
2023-02-26T13:26:11.537Z,101543.66
2023-02-26T13:28:44.561Z,101556.06
2023-02-26T13:31:27.254Z,101561.34
2023-02-26T13:33:56.469Z,101552.09
2023-02-26T13:36:25.552Z,101555.81
2023-02-26T13:39:07.123Z,101562.16
2023-02-26T13:41:50.105Z,101564.66
2023-02-26T13:44:28.626Z,101573.63
2023-02-26T13:47:04.084Z,101571.09
2023-02-26T13:49:46.124Z,101573.84
2023-02-26T13:52:49.944Z,101564.09
2023-02-26T13:55:38.364Z,101562.84
2023-02-26T13:58:23.895Z,101560.75
2023-02-26T14:01:19.252Z,101564.50
2023-02-26T14:03:52.890Z,101566.06
2023-02-26T14:06:24.575Z,101562.25
2023-02-26T14:08:55.097Z,101573.09
2023-02-26T14:11:38.224Z,101573.22
2023-02-26T14:14:16.919Z,101575.00
2023-02-26T14:16:45.643Z,101581.25
2023-02-26T14:19:36.319Z,101583.69
2023-02-26T14:22:21.123Z,101590.25
2023-02-26T14:25:05.146Z,101585.81
2023-02-26T14:27:38.124Z,101584.84
2023-02-26T14:30:10.516Z,101583.97
2023-02-26T14:32:58.637Z,101593.13
2023-02-26T14:35:31.898Z,101590.34
2023-02-26T14:38:13.841Z,101591.13
2023-02-26T14:40:48.920Z,101593.38
2023-02-26T14:43:36.308Z,101592.13
2023-02-26T14:46:05.056Z,101605.38
2023-02-26T14:48:32.987Z,101600.66
2023-02-26T14:51:02.316Z,101607.22
2023-02-26T14:53:46.768Z,101606.53
2023-02-26T14:56:31.318Z,101605.09
2023-02-26T14:59:36.034Z,101610.56
2023-02-26T15:02:24.917Z,101615.56
2023-02-26T15:05:14.914Z,101613.56
2023-02-26T15:07:56.004Z,101618.72
2023-02-26T15:10:37.362Z,101621.75
2023-02-26T15:13:31.593Z,101627.47
2023-02-26T15:16:26.523Z,101621.91
2023-02-26T15:18:55.595Z,101623.09
2023-02-26T15:21:54.018Z,101623.56
2023-02-26T15:24:20.586Z,101623.63
2023-02-26T15:26:51.306Z,101626.25
2023-02-26T15:29:20.941Z,101631.19
2023-02-26T15:31:54.241Z,101623.16
2023-02-26T15:34:21.560Z,101632.06
2023-02-26T15:36:53.265Z,101627.72
2023-02-26T15:39:23.360Z,101630.59
2023-02-26T15:41:52.202Z,101633.84
2023-02-26T15:44:26.908Z,101630.22
2023-02-26T15:47:00.214Z,101635.78
2023-02-26T15:49:31.585Z,101631.53
2023-02-26T15:52:00.626Z,101629.03
2023-02-26T15:54:51.412Z,101634.50
2023-02-26T15:57:19.999Z,101635.63
2023-02-26T15:59:50.337Z,101644.59
2023-02-26T16:02:21.836Z,101643.59
2023-02-26T16:04:48.267Z,101638.47
2023-02-26T16:07:15.140Z,101635.16
2023-02-26T16:09:51.391Z,101639.69
2023-02-26T16:12:24.464Z,101644.31
2023-02-26T16:15:01.579Z,101642.88
2023-02-26T16:17:32.927Z,101643.03
2023-02-26T16:20:05.051Z,101652.19
2023-02-26T16:22:42.025Z,101645.28
2023-02-26T16:25:28.759Z,101648.47
2023-02-26T16:28:02.456Z,101654.22
2023-02-26T16:30:39.363Z,101660.94
2023-02-26T16:33:12.318Z,101660.38
2023-02-26T16:35:43.650Z,101669.28
2023-02-26T16:38:32.515Z,101667.69
2023-02-26T16:41:05.753Z,101671.97
2023-02-26T16:43:50.257Z,101673.16
2023-02-26T16:46:42.470Z,101684.34
2023-02-26T16:49:29.287Z,101682.75
2023-02-26T16:51:57.538Z,101689.59
2023-02-26T16:54:46.316Z,101686.34
2023-02-26T16:57:37.326Z,101693.50
2023-02-26T17:00:09.570Z,101701.66
2023-02-26T17:02:37.810Z,101701.66
2023-02-26T17:05:31.609Z,101710.53
2023-02-26T17:08:09.653Z,101719.56
2023-02-26T17:10:45.098Z,101718.00
2023-02-26T17:13:18.406Z,101718.94
2023-02-26T17:15:47.043Z,101726.13
2023-02-26T17:18:14.024Z,101722.63
2023-02-26T17:20:40.710Z,101732.41
2023-02-26T17:23:11.752Z,101725.44
2023-02-26T17:25:42.396Z,101726.28
2023-02-26T17:28:12.314Z,101738.50
2023-02-26T17:30:39.071Z,101734.09
2023-02-26T17:33:07.803Z,101741.31
2023-02-26T17:35:34.445Z,101748.31
2023-02-26T17:38:01.159Z,101744.78
2023-02-26T17:40:31.695Z,101753.75
2023-02-26T17:42:59.957Z,101751.84
2023-02-26T17:45:26.526Z,101756.31
2023-02-26T17:47:53.058Z,101761.56
2023-02-26T17:50:26.660Z,101758.06
2023-02-26T17:52:53.142Z,101763.88
2023-02-26T17:55:19.646Z,101765.66
2023-02-26T17:57:46.604Z,101764.81
2023-02-26T18:00:16.275Z,101763.31
2023-02-26T18:02:43.098Z,101762.69
2023-02-26T18:05:10.030Z,101769.84
2023-02-26T18:07:37.575Z,101779.41
2023-02-26T18:10:04.887Z,101779.78
2023-02-26T18:12:31.383Z,101782.53
2023-02-26T18:14:57.872Z,101777.34
2023-02-26T18:17:27.786Z,101784.38
2023-02-26T18:19:54.466Z,101788.31
2023-02-26T18:22:25.201Z,101782.97
2023-02-26T18:24:52.493Z,101789.88
2023-02-26T18:27:21.528Z,101783.91
2023-02-26T18:29:48.012Z,101784.97
2023-02-26T18:32:19.609Z,101791.31
2023-02-26T18:34:46.259Z,101788.63
2023-02-26T18:37:15.874Z,101790.78
2023-02-26T18:39:42.789Z,101789.84
2023-02-26T18:42:24.399Z,101798.47
2023-02-26T18:44:51.352Z,101797.69
2023-02-26T18:47:18.978Z,101808.34
2023-02-26T18:49:46.178Z,101807.44
2023-02-26T18:52:13.261Z,101812.94
2023-02-26T18:54:40.229Z,101814.66
2023-02-26T18:57:07.596Z,101819.28
2023-02-26T18:59:34.655Z,101816.09
2023-02-26T19:02:03.069Z,101822.00
2023-02-26T19:04:30.623Z,101826.41
2023-02-26T19:06:57.182Z,101831.00
2023-02-26T19:09:23.842Z,101837.69
2023-02-26T19:11:50.289Z,101835.31
2023-02-26T19:14:16.804Z,101838.94
2023-02-26T19:16:43.727Z,101833.84
2023-02-26T19:19:12.618Z,101840.75
2023-02-26T19:21:40.268Z,101845.97
2023-02-26T19:24:12.067Z,101838.28
2023-02-26T19:26:39.068Z,101843.78
2023-02-26T19:29:07.817Z,101847.16
2023-02-26T19:31:36.454Z,101847.41
2023-02-26T19:34:04.300Z,101853.44
2023-02-26T19:36:33.503Z,101849.13
2023-02-26T19:39:01.717Z,101852.53
2023-02-26T19:41:28.785Z,101856.03
2023-02-26T19:43:55.747Z,101851.06
2023-02-26T19:46:23.168Z,101850.13
2023-02-26T19:48:50.187Z,101847.53
2023-02-26T19:51:17.229Z,101860.72
2023-02-26T19:53:43.758Z,101854.50
2023-02-26T19:56:10.700Z,101859.88
2023-02-26T19:58:37.190Z,101866.06
2023-02-26T20:01:05.286Z,101868.91
2023-02-26T20:03:32.073Z,101869.78
2023-02-26T20:05:59.110Z,101868.81
2023-02-26T20:08:29.357Z,101876.78
2023-02-26T20:10:58.141Z,101883.66
2023-02-26T20:13:29.738Z,101879.41
2023-02-26T20:16:00.601Z,101889.16
2023-02-26T20:18:30.819Z,101894.63
2023-02-26T20:20:58.900Z,101891.06
2023-02-26T20:23:26.086Z,101891.06
2023-02-26T20:25:56.973Z,101891.78
2023-02-26T20:28:24.904Z,101893.69
2023-02-26T20:30:52.315Z,101903.16
2023-02-26T20:33:19.422Z,101898.97
2023-02-26T20:35:46.037Z,101900.75
2023-02-26T20:38:17.268Z,101909.53
2023-02-26T20:40:43.968Z,101914.03
2023-02-26T20:43:10.874Z,101919.34
2023-02-26T20:45:38.732Z,101922.03
2023-02-26T20:48:07.119Z,101919.34
2023-02-26T20:50:34.863Z,101920.28
2023-02-26T20:53:01.724Z,101915.88
2023-02-26T20:55:28.275Z,101927.38
2023-02-26T20:57:55.259Z,101928.16
2023-02-26T21:00:22.173Z,101924.66
2023-02-26T21:02:49.084Z,101934.53
2023-02-26T21:05:16.212Z,101929.22
2023-02-26T21:07:43.224Z,101933.69
2023-02-26T21:10:12.281Z,101935.47
2023-02-26T21:12:38.863Z,101935.53
2023-02-26T21:15:06.953Z,101946.19
2023-02-26T21:17:33.403Z,101943.63
2023-02-26T21:19:59.814Z,101948.03
2023-02-26T21:22:26.297Z,101944.47
2023-02-26T21:24:52.718Z,101949.66
2023-02-26T21:27:19.161Z,101954.81
2023-02-26T21:29:45.636Z,101954.13
2023-02-26T21:32:12.197Z,101959.31
2023-02-26T21:34:38.969Z,101963.53
2023-02-26T21:37:08.579Z,101964.41
2023-02-26T21:39:35.988Z,101965.88
2023-02-26T21:42:03.796Z,101969.34
2023-02-26T21:44:32.729Z,101969.41
2023-02-26T21:46:59.428Z,101971.78
2023-02-26T21:49:27.317Z,101983.19
2023-02-26T21:51:53.872Z,101971.06
2023-02-26T21:54:20.482Z,101970.91
2023-02-26T21:56:47.162Z,101977.03
2023-02-26T21:59:14.026Z,101976.38
2023-02-26T22:01:40.789Z,101981.56
2023-02-26T22:04:07.976Z,101979.66
2023-02-26T22:06:34.631Z,101982.41
2023-02-26T22:09:01.388Z,101989.59
2023-02-26T22:11:28.149Z,101980.16
2023-02-26T22:13:54.907Z,101972.16
2023-02-26T22:16:21.368Z,101975.69
2023-02-26T22:18:47.984Z,101980.06
2023-02-26T22:21:14.656Z,101977.72
2023-02-26T22:23:41.337Z,101982.13
2023-02-26T22:26:07.830Z,101983.00
2023-02-26T22:28:34.318Z,101989.22
2023-02-26T22:31:01.519Z,101995.59
2023-02-26T22:33:28.127Z,101991.97
2023-02-26T22:35:58.753Z,102003.25
2023-02-26T22:38:25.700Z,102002.47
2023-02-26T22:40:52.976Z,102007.88
2023-02-26T22:43:19.991Z,102006.16
2023-02-26T22:45:46.462Z,102015.88
2023-02-26T22:48:13.011Z,102022.00
2023-02-26T22:50:39.654Z,102017.63
2023-02-26T22:53:06.967Z,102023.91
2023-02-26T22:55:33.487Z,102016.97
2023-02-26T22:58:00.634Z,102032.81
